sensor_id;sensor_type;location;lat;lon;timestamp;P1;durP1;ratioP1;P2;durP2;ratioP2
75272;SDS011;63869;52.344;16.928;2023-04-10T00:01:27;35.78;;;18.80;;
75272;SDS011;63869;52.344;16.928;2023-04-10T00:03:56;32.90;;;17.85;;
75272;SDS011;63869;52.344;16.928;2023-04-10T00:06:21;32.15;;;18.00;;
75272;SDS011;63869;52.344;16.928;2023-04-10T00:08:47;28.98;;;16.98;;
75272;SDS011;63869;52.344;16.928;2023-04-10T00:11:12;31.30;;;16.92;;
75272;SDS011;63869;52.344;16.928;2023-04-10T00:13:37;32.67;;;17.27;;
75272;SDS011;63869;52.344;16.928;2023-04-10T00:16:03;31.50;;;17.55;;
75272;SDS011;63869;52.344;16.928;2023-04-10T00:18:28;30.27;;;17.05;;
75272;SDS011;63869;52.344;16.928;2023-04-10T00:20:53;33.10;;;18.30;;
75272;SDS011;63869;52.344;16.928;2023-04-10T00:23:20;34.03;;;16.98;;
75272;SDS011;63869;52.344;16.928;2023-04-10T00:25:46;32.67;;;18.42;;
75272;SDS011;63869;52.344;16.928;2023-04-10T00:28:11;37.53;;;18.42;;
75272;SDS011;63869;52.344;16.928;2023-04-10T00:30:36;34.78;;;17.52;;
75272;SDS011;63869;52.344;16.928;2023-04-10T00:33:02;33.25;;;17.60;;
75272;SDS011;63869;52.344;16.928;2023-04-10T00:35:27;32.80;;;17.00;;
75272;SDS011;63869;52.344;16.928;2023-04-10T00:37:52;36.40;;;17.58;;
75272;SDS011;63869;52.344;16.928;2023-04-10T00:40:20;32.40;;;17.02;;
75272;SDS011;63869;52.344;16.928;2023-04-10T00:42:45;31.80;;;17.25;;
75272;SDS011;63869;52.344;16.928;2023-04-10T00:45:11;29.85;;;15.93;;
75272;SDS011;63869;52.344;16.928;2023-04-10T00:47:37;28.05;;;15.73;;
75272;SDS011;63869;52.344;16.928;2023-04-10T00:50:03;29.38;;;16.38;;
75272;SDS011;63869;52.344;16.928;2023-04-10T00:52:29;30.95;;;15.55;;
75272;SDS011;63869;52.344;16.928;2023-04-10T00:54:56;29.70;;;16.15;;
75272;SDS011;63869;52.344;16.928;2023-04-10T00:57:22;31.48;;;16.98;;
75272;SDS011;63869;52.344;16.928;2023-04-10T00:59:48;32.17;;;17.52;;
75272;SDS011;63869;52.344;16.928;2023-04-10T01:02:16;29.60;;;16.88;;
75272;SDS011;63869;52.344;16.928;2023-04-10T01:04:41;32.22;;;16.90;;
75272;SDS011;63869;52.344;16.928;2023-04-10T01:15:43;31.60;;;16.92;;
75272;SDS011;63869;52.344;16.928;2023-04-10T01:21:13;29.88;;;16.45;;
75272;SDS011;63869;52.344;16.928;2023-04-10T01:23:51;33.90;;;16.65;;
75272;SDS011;63869;52.344;16.928;2023-04-10T01:29:13;33.35;;;17.92;;
75272;SDS011;63869;52.344;16.928;2023-04-10T01:34:19;34.53;;;18.45;;
75272;SDS011;63869;52.344;16.928;2023-04-10T01:36:48;35.75;;;18.80;;
75272;SDS011;63869;52.344;16.928;2023-04-10T01:39:18;30.92;;;17.15;;
75272;SDS011;63869;52.344;16.928;2023-04-10T01:41:45;37.92;;;18.75;;
75272;SDS011;63869;52.344;16.928;2023-04-10T01:44:12;31.88;;;17.35;;
75272;SDS011;63869;52.344;16.928;2023-04-10T01:46:39;33.28;;;17.38;;
75272;SDS011;63869;52.344;16.928;2023-04-10T01:49:04;34.50;;;18.23;;
75272;SDS011;63869;52.344;16.928;2023-04-10T01:51:30;35.60;;;18.30;;
75272;SDS011;63869;52.344;16.928;2023-04-10T01:53:57;38.75;;;19.90;;
75272;SDS011;63869;52.344;16.928;2023-04-10T01:56:24;37.45;;;19.38;;
75272;SDS011;63869;52.344;16.928;2023-04-10T01:58:51;38.63;;;19.85;;
75272;SDS011;63869;52.344;16.928;2023-04-10T02:01:17;39.53;;;20.05;;
75272;SDS011;63869;52.344;16.928;2023-04-10T02:03:43;36.55;;;19.13;;
75272;SDS011;63869;52.344;16.928;2023-04-10T02:08:42;40.92;;;19.65;;
75272;SDS011;63869;52.344;16.928;2023-04-10T02:11:37;41.80;;;20.15;;
75272;SDS011;63869;52.344;16.928;2023-04-10T02:14:01;36.88;;;19.77;;
75272;SDS011;63869;52.344;16.928;2023-04-10T02:16:29;37.03;;;18.98;;
75272;SDS011;63869;52.344;16.928;2023-04-10T02:18:56;38.10;;;19.60;;
75272;SDS011;63869;52.344;16.928;2023-04-10T02:21:23;38.58;;;20.33;;
75272;SDS011;63869;52.344;16.928;2023-04-10T02:23:49;38.80;;;19.52;;
75272;SDS011;63869;52.344;16.928;2023-04-10T02:26:14;38.55;;;18.70;;
75272;SDS011;63869;52.344;16.928;2023-04-10T02:28:39;38.88;;;18.15;;
75272;SDS011;63869;52.344;16.928;2023-04-10T02:31:05;33.90;;;18.45;;
75272;SDS011;63869;52.344;16.928;2023-04-10T02:33:31;39.72;;;19.00;;
75272;SDS011;63869;52.344;16.928;2023-04-10T02:35:56;35.50;;;19.13;;
75272;SDS011;63869;52.344;16.928;2023-04-10T02:38:21;35.05;;;18.58;;
75272;SDS011;63869;52.344;16.928;2023-04-10T02:40:47;34.13;;;17.20;;
75272;SDS011;63869;52.344;16.928;2023-04-10T02:43:14;36.20;;;17.52;;
75272;SDS011;63869;52.344;16.928;2023-04-10T02:45:39;33.85;;;18.23;;
75272;SDS011;63869;52.344;16.928;2023-04-10T02:48:05;33.72;;;17.45;;
75272;SDS011;63869;52.344;16.928;2023-04-10T02:50:31;35.80;;;17.15;;
75272;SDS011;63869;52.344;16.928;2023-04-10T02:52:56;36.80;;;17.10;;
75272;SDS011;63869;52.344;16.928;2023-04-10T02:55:21;31.85;;;16.48;;
75272;SDS011;63869;52.344;16.928;2023-04-10T02:57:47;37.67;;;17.63;;
75272;SDS011;63869;52.344;16.928;2023-04-10T03:00:12;33.08;;;17.67;;
75272;SDS011;63869;52.344;16.928;2023-04-10T03:02:38;36.33;;;17.42;;
75272;SDS011;63869;52.344;16.928;2023-04-10T03:05:03;35.08;;;17.25;;
75272;SDS011;63869;52.344;16.928;2023-04-10T03:07:30;33.35;;;16.55;;
75272;SDS011;63869;52.344;16.928;2023-04-10T03:09:56;29.98;;;16.48;;
75272;SDS011;63869;52.344;16.928;2023-04-10T03:12:21;32.40;;;16.45;;
75272;SDS011;63869;52.344;16.928;2023-04-10T03:14:47;34.10;;;17.40;;
75272;SDS011;63869;52.344;16.928;2023-04-10T03:17:13;33.72;;;16.92;;
75272;SDS011;63869;52.344;16.928;2023-04-10T03:19:38;30.92;;;16.90;;
75272;SDS011;63869;52.344;16.928;2023-04-10T03:22:03;34.75;;;16.88;;
75272;SDS011;63869;52.344;16.928;2023-04-10T03:24:28;32.70;;;17.50;;
75272;SDS011;63869;52.344;16.928;2023-04-10T03:26:55;34.17;;;17.38;;
75272;SDS011;63869;52.344;16.928;2023-04-10T03:29:21;32.03;;;17.23;;
75272;SDS011;63869;52.344;16.928;2023-04-10T03:31:46;32.47;;;17.20;;
75272;SDS011;63869;52.344;16.928;2023-04-10T03:34:11;32.90;;;16.10;;
75272;SDS011;63869;52.344;16.928;2023-04-10T03:36:37;33.40;;;16.42;;
75272;SDS011;63869;52.344;16.928;2023-04-10T03:39:02;31.48;;;17.15;;
75272;SDS011;63869;52.344;16.928;2023-04-10T03:41:28;29.83;;;16.85;;
75272;SDS011;63869;52.344;16.928;2023-04-10T03:43:53;31.15;;;17.98;;
75272;SDS011;63869;52.344;16.928;2023-04-10T03:46:18;33.78;;;16.77;;
75272;SDS011;63869;52.344;16.928;2023-04-10T03:48:44;36.60;;;17.25;;
75272;SDS011;63869;52.344;16.928;2023-04-10T03:51:09;33.90;;;16.95;;
75272;SDS011;63869;52.344;16.928;2023-04-10T03:53:35;34.20;;;17.30;;
75272;SDS011;63869;52.344;16.928;2023-04-10T03:56:01;28.98;;;15.60;;
75272;SDS011;63869;52.344;16.928;2023-04-10T03:58:27;31.52;;;16.58;;
75272;SDS011;63869;52.344;16.928;2023-04-10T04:00:52;33.42;;;16.33;;
75272;SDS011;63869;52.344;16.928;2023-04-10T04:03:18;35.90;;;17.40;;
75272;SDS011;63869;52.344;16.928;2023-04-10T04:05:43;33.53;;;17.30;;
75272;SDS011;63869;52.344;16.928;2023-04-10T04:08:08;32.92;;;16.75;;
75272;SDS011;63869;52.344;16.928;2023-04-10T04:10:34;31.40;;;16.45;;
75272;SDS011;63869;52.344;16.928;2023-04-10T04:12:59;29.20;;;14.93;;
75272;SDS011;63869;52.344;16.928;2023-04-10T04:15:24;32.85;;;16.65;;
75272;SDS011;63869;52.344;16.928;2023-04-10T04:17:50;29.45;;;16.13;;
75272;SDS011;63869;52.344;16.928;2023-04-10T04:20:15;29.77;;;16.35;;
75272;SDS011;63869;52.344;16.928;2023-04-10T04:22:41;31.10;;;15.32;;
75272;SDS011;63869;52.344;16.928;2023-04-10T04:25:06;33.47;;;16.67;;
75272;SDS011;63869;52.344;16.928;2023-04-10T04:27:36;37.25;;;18.70;;
75272;SDS011;63869;52.344;16.928;2023-04-10T04:30:03;37.08;;;18.50;;
75272;SDS011;63869;52.344;16.928;2023-04-10T04:32:29;33.55;;;17.98;;
75272;SDS011;63869;52.344;16.928;2023-04-10T04:34:54;35.05;;;18.13;;
75272;SDS011;63869;52.344;16.928;2023-04-10T04:37:19;35.83;;;18.65;;
75272;SDS011;63869;52.344;16.928;2023-04-10T04:39:44;37.58;;;18.15;;
75272;SDS011;63869;52.344;16.928;2023-04-10T04:42:10;33.13;;;17.90;;
75272;SDS011;63869;52.344;16.928;2023-04-10T04:44:35;34.83;;;18.20;;
75272;SDS011;63869;52.344;16.928;2023-04-10T04:47:00;31.48;;;16.65;;
75272;SDS011;63869;52.344;16.928;2023-04-10T04:49:26;31.83;;;17.67;;
75272;SDS011;63869;52.344;16.928;2023-04-10T04:51:52;35.25;;;17.83;;
75272;SDS011;63869;52.344;16.928;2023-04-10T04:54:17;34.80;;;17.73;;
75272;SDS011;63869;52.344;16.928;2023-04-10T04:56:42;31.27;;;17.17;;
75272;SDS011;63869;52.344;16.928;2023-04-10T04:59:09;32.85;;;16.98;;
75272;SDS011;63869;52.344;16.928;2023-04-10T05:01:35;33.17;;;18.20;;
75272;SDS011;63869;52.344;16.928;2023-04-10T05:04:00;31.00;;;17.60;;
75272;SDS011;63869;52.344;16.928;2023-04-10T05:06:25;30.17;;;17.38;;
75272;SDS011;63869;52.344;16.928;2023-04-10T05:08:50;31.88;;;16.60;;
75272;SDS011;63869;52.344;16.928;2023-04-10T05:11:19;31.70;;;17.02;;
75272;SDS011;63869;52.344;16.928;2023-04-10T05:13:45;30.67;;;17.30;;
75272;SDS011;63869;52.344;16.928;2023-04-10T05:16:10;30.10;;;16.50;;
75272;SDS011;63869;52.344;16.928;2023-04-10T05:18:35;30.77;;;17.48;;
75272;SDS011;63869;52.344;16.928;2023-04-10T05:21:01;34.40;;;17.95;;
75272;SDS011;63869;52.344;16.928;2023-04-10T05:23:26;33.10;;;17.95;;
75272;SDS011;63869;52.344;16.928;2023-04-10T05:25:51;33.58;;;18.58;;
75272;SDS011;63869;52.344;16.928;2023-04-10T05:28:17;32.50;;;18.35;;
75272;SDS011;63869;52.344;16.928;2023-04-10T05:30:42;31.65;;;17.98;;
75272;SDS011;63869;52.344;16.928;2023-04-10T05:33:07;31.13;;;17.70;;
75272;SDS011;63869;52.344;16.928;2023-04-10T05:35:33;31.25;;;16.55;;
75272;SDS011;63869;52.344;16.928;2023-04-10T05:37:58;35.65;;;18.58;;
75272;SDS011;63869;52.344;16.928;2023-04-10T05:40:24;35.25;;;18.42;;
75272;SDS011;63869;52.344;16.928;2023-04-10T05:42:50;32.10;;;17.55;;
75272;SDS011;63869;52.344;16.928;2023-04-10T05:45:16;36.35;;;20.33;;
75272;SDS011;63869;52.344;16.928;2023-04-10T05:47:42;42.13;;;22.98;;
75272;SDS011;63869;52.344;16.928;2023-04-10T05:50:08;44.70;;;22.70;;
75272;SDS011;63869;52.344;16.928;2023-04-10T05:52:33;34.42;;;19.33;;
75272;SDS011;63869;52.344;16.928;2023-04-10T05:54:59;31.17;;;18.85;;
75272;SDS011;63869;52.344;16.928;2023-04-10T05:57:24;30.48;;;17.33;;
75272;SDS011;63869;52.344;16.928;2023-04-10T05:59:50;30.35;;;16.40;;
75272;SDS011;63869;52.344;16.928;2023-04-10T06:02:15;27.23;;;15.30;;
75272;SDS011;63869;52.344;16.928;2023-04-10T06:04:40;25.00;;;15.20;;
75272;SDS011;63869;52.344;16.928;2023-04-10T06:07:06;28.00;;;15.60;;
75272;SDS011;63869;52.344;16.928;2023-04-10T06:09:31;28.33;;;15.88;;
75272;SDS011;63869;52.344;16.928;2023-04-10T06:11:57;26.58;;;15.82;;
75272;SDS011;63869;52.344;16.928;2023-04-10T06:14:22;28.73;;;16.67;;
75272;SDS011;63869;52.344;16.928;2023-04-10T06:16:49;29.88;;;16.98;;
75272;SDS011;63869;52.344;16.928;2023-04-10T06:19:14;31.90;;;17.90;;
75272;SDS011;63869;52.344;16.928;2023-04-10T06:21:41;27.00;;;16.48;;
75272;SDS011;63869;52.344;16.928;2023-04-10T06:24:06;26.15;;;15.75;;
75272;SDS011;63869;52.344;16.928;2023-04-10T06:26:31;28.33;;;15.05;;
75272;SDS011;63869;52.344;16.928;2023-04-10T06:28:57;24.30;;;14.35;;
75272;SDS011;63869;52.344;16.928;2023-04-10T06:31:22;25.20;;;15.35;;
75272;SDS011;63869;52.344;16.928;2023-04-10T06:33:48;26.00;;;14.77;;
75272;SDS011;63869;52.344;16.928;2023-04-10T06:36:14;28.48;;;14.43;;
75272;SDS011;63869;52.344;16.928;2023-04-10T06:38:40;22.77;;;13.82;;
75272;SDS011;63869;52.344;16.928;2023-04-10T06:41:06;22.23;;;12.82;;
75272;SDS011;63869;52.344;16.928;2023-04-10T06:43:35;26.08;;;13.38;;
75272;SDS011;63869;52.344;16.928;2023-04-10T06:46:02;23.55;;;13.23;;
75272;SDS011;63869;52.344;16.928;2023-04-10T06:48:29;26.75;;;14.02;;
75272;SDS011;63869;52.344;16.928;2023-04-10T06:50:58;20.95;;;12.50;;
75272;SDS011;63869;52.344;16.928;2023-04-10T06:53:27;24.90;;;12.98;;
75272;SDS011;63869;52.344;16.928;2023-04-10T06:55:55;21.95;;;13.88;;
75272;SDS011;63869;52.344;16.928;2023-04-10T06:58:21;24.83;;;13.50;;
75272;SDS011;63869;52.344;16.928;2023-04-10T07:00:46;24.70;;;13.13;;
75272;SDS011;63869;52.344;16.928;2023-04-10T07:03:11;25.08;;;13.20;;
75272;SDS011;63869;52.344;16.928;2023-04-10T07:05:36;24.52;;;12.73;;
75272;SDS011;63869;52.344;16.928;2023-04-10T07:08:02;32.53;;;14.13;;
75272;SDS011;63869;52.344;16.928;2023-04-10T07:10:27;23.90;;;13.07;;
75272;SDS011;63869;52.344;16.928;2023-04-10T07:12:52;31.30;;;14.05;;
75272;SDS011;63869;52.344;16.928;2023-04-10T07:15:18;30.85;;;14.50;;
75272;SDS011;63869;52.344;16.928;2023-04-10T07:17:43;35.47;;;15.93;;
75272;SDS011;63869;52.344;16.928;2023-04-10T07:20:08;29.48;;;14.48;;
75272;SDS011;63869;52.344;16.928;2023-04-10T07:22:34;31.73;;;15.68;;
75272;SDS011;63869;52.344;16.928;2023-04-10T07:24:59;33.00;;;16.33;;
75272;SDS011;63869;52.344;16.928;2023-04-10T07:27:25;43.10;;;19.90;;
75272;SDS011;63869;52.344;16.928;2023-04-10T07:29:52;34.95;;;17.15;;
75272;SDS011;63869;52.344;16.928;2023-04-10T07:32:19;40.72;;;19.95;;
75272;SDS011;63869;52.344;16.928;2023-04-10T07:34:44;64.65;;;26.50;;
75272;SDS011;63869;52.344;16.928;2023-04-10T07:37:09;65.40;;;26.10;;
75272;SDS011;63869;52.344;16.928;2023-04-10T07:39:35;35.85;;;17.83;;
75272;SDS011;63869;52.344;16.928;2023-04-10T07:42:00;37.25;;;18.25;;
75272;SDS011;63869;52.344;16.928;2023-04-10T07:44:26;39.28;;;17.92;;
75272;SDS011;63869;52.344;16.928;2023-04-10T07:46:52;39.00;;;19.25;;
75272;SDS011;63869;52.344;16.928;2023-04-10T07:49:17;38.08;;;18.55;;
75272;SDS011;63869;52.344;16.928;2023-04-10T07:51:44;37.22;;;18.23;;
75272;SDS011;63869;52.344;16.928;2023-04-10T07:54:09;40.40;;;19.73;;
75272;SDS011;63869;52.344;16.928;2023-04-10T07:56:35;39.60;;;18.40;;
75272;SDS011;63869;52.344;16.928;2023-04-10T07:59:01;42.08;;;19.27;;
75272;SDS011;63869;52.344;16.928;2023-04-10T08:01:27;39.83;;;19.33;;
75272;SDS011;63869;52.344;16.928;2023-04-10T08:03:53;39.35;;;19.83;;
75272;SDS011;63869;52.344;16.928;2023-04-10T08:06:19;45.85;;;19.80;;
75272;SDS011;63869;52.344;16.928;2023-04-10T08:08:45;39.25;;;19.80;;
75272;SDS011;63869;52.344;16.928;2023-04-10T08:11:26;36.88;;;19.48;;
75272;SDS011;63869;52.344;16.928;2023-04-10T08:14:00;37.73;;;20.07;;
75272;SDS011;63869;52.344;16.928;2023-04-10T08:16:26;38.10;;;19.77;;
75272;SDS011;63869;52.344;16.928;2023-04-10T08:18:56;37.97;;;18.83;;
75272;SDS011;63869;52.344;16.928;2023-04-10T08:21:23;38.88;;;19.40;;
75272;SDS011;63869;52.344;16.928;2023-04-10T08:23:52;37.13;;;19.48;;
75272;SDS011;63869;52.344;16.928;2023-04-10T08:26:18;37.92;;;19.05;;
75272;SDS011;63869;52.344;16.928;2023-04-10T08:28:45;41.65;;;20.38;;
75272;SDS011;63869;52.344;16.928;2023-04-10T08:31:18;39.47;;;20.65;;
75272;SDS011;63869;52.344;16.928;2023-04-10T08:33:47;38.47;;;20.20;;
75272;SDS011;63869;52.344;16.928;2023-04-10T08:36:13;37.33;;;19.80;;
75272;SDS011;63869;52.344;16.928;2023-04-10T08:38:42;41.08;;;20.00;;
75272;SDS011;63869;52.344;16.928;2023-04-10T08:41:15;36.83;;;18.27;;
75272;SDS011;63869;52.344;16.928;2023-04-10T08:43:41;37.38;;;18.85;;
75272;SDS011;63869;52.344;16.928;2023-04-10T08:46:08;37.63;;;20.23;;
75272;SDS011;63869;52.344;16.928;2023-04-10T08:48:37;37.53;;;19.55;;
75272;SDS011;63869;52.344;16.928;2023-04-10T08:51:06;40.97;;;21.35;;
75272;SDS011;63869;52.344;16.928;2023-04-10T08:53:33;37.78;;;20.92;;
75272;SDS011;63869;52.344;16.928;2023-04-10T08:56:05;38.70;;;19.95;;
75272;SDS011;63869;52.344;16.928;2023-04-10T08:58:31;36.03;;;20.63;;
75272;SDS011;63869;52.344;16.928;2023-04-10T09:00:57;37.22;;;19.83;;
75272;SDS011;63869;52.344;16.928;2023-04-10T09:03:22;43.53;;;20.52;;
75272;SDS011;63869;52.344;16.928;2023-04-10T09:05:48;36.40;;;20.17;;
75272;SDS011;63869;52.344;16.928;2023-04-10T09:08:13;39.70;;;20.88;;
75272;SDS011;63869;52.344;16.928;2023-04-10T09:10:39;38.25;;;20.35;;
75272;SDS011;63869;52.344;16.928;2023-04-10T09:13:04;38.83;;;20.17;;
75272;SDS011;63869;52.344;16.928;2023-04-10T09:15:30;35.67;;;20.17;;
75272;SDS011;63869;52.344;16.928;2023-04-10T09:18:19;35.63;;;19.50;;
75272;SDS011;63869;52.344;16.928;2023-04-10T09:20:44;34.38;;;19.27;;
75272;SDS011;63869;52.344;16.928;2023-04-10T09:23:21;36.33;;;19.08;;
75272;SDS011;63869;52.344;16.928;2023-04-10T09:25:46;40.53;;;23.63;;
75272;SDS011;63869;52.344;16.928;2023-04-10T09:28:12;40.35;;;20.80;;
75272;SDS011;63869;52.344;16.928;2023-04-10T09:30:38;38.60;;;19.60;;
75272;SDS011;63869;52.344;16.928;2023-04-10T09:33:21;37.95;;;18.85;;
75272;SDS011;63869;52.344;16.928;2023-04-10T09:35:46;40.55;;;19.75;;
75272;SDS011;63869;52.344;16.928;2023-04-10T09:38:13;38.70;;;20.08;;
75272;SDS011;63869;52.344;16.928;2023-04-10T09:40:40;41.55;;;20.70;;
75272;SDS011;63869;52.344;16.928;2023-04-10T09:43:15;38.88;;;20.77;;
75272;SDS011;63869;52.344;16.928;2023-04-10T09:45:48;37.38;;;19.85;;
75272;SDS011;63869;52.344;16.928;2023-04-10T09:48:15;35.67;;;19.45;;
75272;SDS011;63869;52.344;16.928;2023-04-10T09:50:40;35.67;;;19.45;;
75272;SDS011;63869;52.344;16.928;2023-04-10T09:53:10;33.25;;;18.95;;
75272;SDS011;63869;52.344;16.928;2023-04-10T09:55:36;40.38;;;19.23;;
75272;SDS011;63869;52.344;16.928;2023-04-10T09:58:02;33.60;;;19.02;;
75272;SDS011;63869;52.344;16.928;2023-04-10T10:00:28;35.08;;;18.95;;
75272;SDS011;63869;52.344;16.928;2023-04-10T10:02:53;34.13;;;19.40;;
75272;SDS011;63869;52.344;16.928;2023-04-10T10:05:21;37.72;;;21.23;;
75272;SDS011;63869;52.344;16.928;2023-04-10T10:07:51;35.15;;;18.98;;
75272;SDS011;63869;52.344;16.928;2023-04-10T10:10:17;37.50;;;18.73;;
75272;SDS011;63869;52.344;16.928;2023-04-10T10:12:44;33.97;;;17.85;;
75272;SDS011;63869;52.344;16.928;2023-04-10T10:15:22;32.40;;;18.15;;
75272;SDS011;63869;52.344;16.928;2023-04-10T10:18:06;34.53;;;18.17;;
75272;SDS011;63869;52.344;16.928;2023-04-10T10:20:37;30.45;;;17.00;;
75272;SDS011;63869;52.344;16.928;2023-04-10T10:23:05;35.20;;;18.52;;
75272;SDS011;63869;52.344;16.928;2023-04-10T10:25:31;30.02;;;16.92;;
75272;SDS011;63869;52.344;16.928;2023-04-10T10:28:01;31.38;;;17.65;;
75272;SDS011;63869;52.344;16.928;2023-04-10T10:30:30;28.33;;;16.70;;
75272;SDS011;63869;52.344;16.928;2023-04-10T10:32:57;32.40;;;18.85;;
75272;SDS011;63869;52.344;16.928;2023-04-10T10:35:23;32.25;;;17.52;;
75272;SDS011;63869;52.344;16.928;2023-04-10T10:37:54;32.55;;;18.65;;
75272;SDS011;63869;52.344;16.928;2023-04-10T10:40:27;31.73;;;18.27;;
75272;SDS011;63869;52.344;16.928;2023-04-10T10:42:59;32.70;;;18.63;;
75272;SDS011;63869;52.344;16.928;2023-04-10T10:45:37;32.13;;;18.40;;
75272;SDS011;63869;52.344;16.928;2023-04-10T10:48:16;29.15;;;18.17;;
75272;SDS011;63869;52.344;16.928;2023-04-10T10:58:53;33.45;;;17.80;;
75272;SDS011;63869;52.344;16.928;2023-04-10T11:01:21;30.95;;;17.55;;
75272;SDS011;63869;52.344;16.928;2023-04-10T11:03:47;28.98;;;17.48;;
75272;SDS011;63869;52.344;16.928;2023-04-10T11:06:16;29.73;;;17.08;;
75272;SDS011;63869;52.344;16.928;2023-04-10T11:11:16;30.77;;;18.10;;
75272;SDS011;63869;52.344;16.928;2023-04-10T11:16:42;33.25;;;18.05;;
75272;SDS011;63869;52.344;16.928;2023-04-10T11:19:08;31.50;;;17.10;;
75272;SDS011;63869;52.344;16.928;2023-04-10T11:22:00;29.73;;;17.30;;
75272;SDS011;63869;52.344;16.928;2023-04-10T11:24:29;33.55;;;18.75;;
75272;SDS011;63869;52.344;16.928;2023-04-10T11:30:31;35.33;;;18.95;;
75272;SDS011;63869;52.344;16.928;2023-04-10T11:32:58;29.38;;;16.85;;
75272;SDS011;63869;52.344;16.928;2023-04-10T11:35:25;32.10;;;17.80;;
75272;SDS011;63869;52.344;16.928;2023-04-10T11:37:51;34.50;;;19.42;;
75272;SDS011;63869;52.344;16.928;2023-04-10T11:40:31;31.25;;;17.55;;
75272;SDS011;63869;52.344;16.928;2023-04-10T11:43:10;32.90;;;19.15;;
75272;SDS011;63869;52.344;16.928;2023-04-10T11:45:36;32.65;;;18.60;;
75272;SDS011;63869;52.344;16.928;2023-04-10T11:48:01;29.05;;;17.77;;
75272;SDS011;63869;52.344;16.928;2023-04-10T11:50:27;34.25;;;18.33;;
75272;SDS011;63869;52.344;16.928;2023-04-10T11:52:53;27.20;;;16.30;;
75272;SDS011;63869;52.344;16.928;2023-04-10T11:55:19;25.48;;;15.10;;
75272;SDS011;63869;52.344;16.928;2023-04-10T11:57:44;23.45;;;14.73;;
75272;SDS011;63869;52.344;16.928;2023-04-10T12:00:10;23.85;;;14.45;;
75272;SDS011;63869;52.344;16.928;2023-04-10T12:02:48;24.02;;;13.35;;
75272;SDS011;63869;52.344;16.928;2023-04-10T12:05:15;22.27;;;14.43;;
75272;SDS011;63869;52.344;16.928;2023-04-10T12:07:40;20.70;;;11.85;;
75272;SDS011;63869;52.344;16.928;2023-04-10T12:10:07;17.17;;;11.45;;
75272;SDS011;63869;52.344;16.928;2023-04-10T12:12:33;19.48;;;12.93;;
75272;SDS011;63869;52.344;16.928;2023-04-10T12:15:02;16.63;;;11.70;;
75272;SDS011;63869;52.344;16.928;2023-04-10T12:17:28;19.95;;;12.05;;
75272;SDS011;63869;52.344;16.928;2023-04-10T12:19:53;13.55;;;9.07;;
75272;SDS011;63869;52.344;16.928;2023-04-10T12:22:19;16.25;;;9.77;;
75272;SDS011;63869;52.344;16.928;2023-04-10T12:29:44;17.75;;;11.32;;
75272;SDS011;63869;52.344;16.928;2023-04-10T12:32:10;14.52;;;8.10;;
75272;SDS011;63869;52.344;16.928;2023-04-10T12:34:36;14.07;;;8.75;;
75272;SDS011;63869;52.344;16.928;2023-04-10T12:37:01;12.00;;;7.70;;
75272;SDS011;63869;52.344;16.928;2023-04-10T12:39:27;19.52;;;10.55;;
75272;SDS011;63869;52.344;16.928;2023-04-10T12:41:53;14.25;;;9.40;;
75272;SDS011;63869;52.344;16.928;2023-04-10T12:44:51;12.60;;;8.30;;
75272;SDS011;63869;52.344;16.928;2023-04-10T12:47:21;12.50;;;7.72;;
75272;SDS011;63869;52.344;16.928;2023-04-10T12:50:03;14.25;;;8.98;;
75272;SDS011;63869;52.344;16.928;2023-04-10T12:52:30;15.17;;;9.37;;
75272;SDS011;63869;52.344;16.928;2023-04-10T12:55:07;13.43;;;8.40;;
75272;SDS011;63869;52.344;16.928;2023-04-10T12:57:35;12.43;;;9.02;;
75272;SDS011;63869;52.344;16.928;2023-04-10T13:00:01;14.07;;;8.43;;
75272;SDS011;63869;52.344;16.928;2023-04-10T13:02:27;12.90;;;8.82;;
75272;SDS011;63869;52.344;16.928;2023-04-10T13:04:53;12.95;;;8.25;;
75272;SDS011;63869;52.344;16.928;2023-04-10T13:07:19;13.30;;;9.77;;
75272;SDS011;63869;52.344;16.928;2023-04-10T13:09:44;10.25;;;8.15;;
75272;SDS011;63869;52.344;16.928;2023-04-10T13:12:10;10.68;;;7.68;;
75272;SDS011;63869;52.344;16.928;2023-04-10T13:14:35;9.30;;;6.25;;
75272;SDS011;63869;52.344;16.928;2023-04-10T13:17:05;10.52;;;7.72;;
75272;SDS011;63869;52.344;16.928;2023-04-10T13:19:33;15.27;;;9.13;;
75272;SDS011;63869;52.344;16.928;2023-04-10T13:21:58;11.63;;;8.30;;
75272;SDS011;63869;52.344;16.928;2023-04-10T13:24:25;10.07;;;7.57;;
75272;SDS011;63869;52.344;16.928;2023-04-10T13:26:50;11.88;;;9.07;;
75272;SDS011;63869;52.344;16.928;2023-04-10T13:29:17;8.88;;;6.93;;
75272;SDS011;63869;52.344;16.928;2023-04-10T13:31:42;9.38;;;7.13;;
75272;SDS011;63869;52.344;16.928;2023-04-10T13:34:07;9.68;;;7.28;;
75272;SDS011;63869;52.344;16.928;2023-04-10T13:36:33;35.30;;;8.45;;
75272;SDS011;63869;52.344;16.928;2023-04-10T13:38:58;11.85;;;7.65;;
75272;SDS011;63869;52.344;16.928;2023-04-10T13:41:24;24.00;;;11.07;;
75272;SDS011;63869;52.344;16.928;2023-04-10T13:43:50;9.60;;;7.05;;
75272;SDS011;63869;52.344;16.928;2023-04-10T13:46:16;9.68;;;7.68;;
75272;SDS011;63869;52.344;16.928;2023-04-10T13:48:41;9.95;;;7.15;;
75272;SDS011;63869;52.344;16.928;2023-04-10T13:51:07;18.77;;;11.60;;
75272;SDS011;63869;52.344;16.928;2023-04-10T13:53:32;12.63;;;9.95;;
75272;SDS011;63869;52.344;16.928;2023-04-10T13:55:58;18.48;;;11.45;;
75272;SDS011;63869;52.344;16.928;2023-04-10T13:58:23;12.55;;;9.07;;
75272;SDS011;63869;52.344;16.928;2023-04-10T14:00:50;13.23;;;9.32;;
75272;SDS011;63869;52.344;16.928;2023-04-10T14:03:15;12.70;;;9.75;;
75272;SDS011;63869;52.344;16.928;2023-04-10T14:05:41;11.40;;;7.80;;
75272;SDS011;63869;52.344;16.928;2023-04-10T14:08:07;11.40;;;8.23;;
75272;SDS011;63869;52.344;16.928;2023-04-10T14:10:35;11.50;;;8.85;;
75272;SDS011;63869;52.344;16.928;2023-04-10T14:13:03;11.98;;;9.00;;
75272;SDS011;63869;52.344;16.928;2023-04-10T14:15:29;11.77;;;9.10;;
75272;SDS011;63869;52.344;16.928;2023-04-10T14:17:55;10.45;;;8.07;;
75272;SDS011;63869;52.344;16.928;2023-04-10T14:20:21;10.88;;;8.82;;
75272;SDS011;63869;52.344;16.928;2023-04-10T14:22:47;11.30;;;8.70;;
75272;SDS011;63869;52.344;16.928;2023-04-10T14:25:13;10.93;;;8.80;;
75272;SDS011;63869;52.344;16.928;2023-04-10T14:27:40;12.55;;;9.25;;
75272;SDS011;63869;52.344;16.928;2023-04-10T14:30:06;18.20;;;9.05;;
75272;SDS011;63869;52.344;16.928;2023-04-10T14:32:33;10.52;;;8.40;;
75272;SDS011;63869;52.344;16.928;2023-04-10T14:34:58;10.57;;;8.50;;
75272;SDS011;63869;52.344;16.928;2023-04-10T14:37:23;10.10;;;8.23;;
75272;SDS011;63869;52.344;16.928;2023-04-10T14:39:48;8.87;;;7.63;;
75272;SDS011;63869;52.344;16.928;2023-04-10T14:42:14;10.07;;;7.78;;
75272;SDS011;63869;52.344;16.928;2023-04-10T14:44:39;10.70;;;7.47;;
75272;SDS011;63869;52.344;16.928;2023-04-10T14:47:05;11.90;;;7.50;;
75272;SDS011;63869;52.344;16.928;2023-04-10T14:49:30;7.57;;;6.65;;
75272;SDS011;63869;52.344;16.928;2023-04-10T14:51:56;8.73;;;6.93;;